Time;durP1;ratioP1;P1;durP2;ratioP2;P2;SDS_P1;SDS_P2;PMS_P1;PMS_P2;Temp;Humidity;BMP_temperature;BMP_pressure;BME280_temperature;BME280_humidity;BME280_pressure;Samples;Min_cycle;Max_cycle;Signal;HPM_P1;HPM_P2
2022/09/25 00:06:01;;;;;;;17.23;9.85;;;;;;;12.93;100.00;99993.97;20732809;28;20048;-71
2022/09/25 00:16:02;;;;;;;16.45;9.77;;;;;;;12.96;100.00;99989.50;20732372;28;20326;-71
2022/09/25 00:26:07;;;;;;;16.42;10.82;;;;;;;12.93;100.00;99976.44;20731866;28;20050;-72
2022/09/25 00:36:08;;;;;;;13.40;9.60;;;;;;;12.84;100.00;99971.50;20730716;28;20074;-71
2022/09/25 00:46:09;;;;;;;14.65;9.02;;;;;;;12.80;100.00;99962.84;20729585;28;20494;-72
2022/09/25 00:56:11;;;;;;;18.80;10.00;;;;;;;12.77;100.00;99960.31;20725176;28;20046;-71
2022/09/25 01:06:13;;;;;;;17.38;10.35;;;;;;;12.73;100.00;99942.91;20727006;28;20049;-71
2022/09/25 01:16:15;;;;;;;16.90;11.40;;;;;;;12.68;100.00;99936.09;20727370;28;20080;-71
2022/09/25 01:26:17;;;;;;;17.23;11.30;;;;;;;12.67;100.00;99935.25;20727742;28;20058;-71
2022/09/25 01:36:18;;;;;;;15.63;10.13;;;;;;;12.68;100.00;99946.59;20726103;28;22481;-71
2022/09/25 01:46:20;;;;;;;17.23;10.07;;;;;;;12.70;100.00;99950.06;20726153;28;20061;-71
2022/09/25 01:56:22;;;;;;;15.07;9.73;;;;;;;12.78;100.00;99932.28;20727109;28;20050;-70
2022/09/25 02:06:23;;;;;;;17.02;10.32;;;;;;;12.84;100.00;99934.72;20727513;28;20089;-70
2022/09/25 02:16:24;;;;;;;15.13;9.60;;;;;;;12.83;100.00;99940.84;20737881;28;20057;-71
2022/09/25 02:26:25;;;;;;;13.18;8.23;;;;;;;12.86;100.00;99924.16;20739754;28;20351;-71
2022/09/25 02:36:27;;;;;;;12.43;8.48;;;;;;;12.94;100.00;99940.53;20740355;28;20096;-71
2022/09/25 02:46:28;;;;;;;15.02;8.43;;;;;;;12.85;100.00;99939.06;20739774;28;20157;-70
2022/09/25 02:56:29;;;;;;;14.55;8.40;;;;;;;12.85;100.00;99933.81;20737696;28;20050;-70
2022/09/25 03:06:31;;;;;;;14.48;9.35;;;;;;;12.93;100.00;99931.75;20800370;22;20072;-78
2022/09/25 03:16:33;;;;;;;13.20;8.50;;;;;;;12.94;100.00;99925.63;20811163;28;20661;-77
2022/09/25 03:26:34;;;;;;;15.00;9.88;;;;;;;12.88;100.00;99928.44;20810493;28;20045;-77
2022/09/25 03:36:36;;;;;;;15.05;9.80;;;;;;;12.94;100.00;99933.50;20827120;28;20049;-77
2022/09/25 03:46:38;;;;;;;12.65;8.65;;;;;;;12.83;100.00;99932.97;20826127;28;20048;-77
2022/09/25 03:56:39;;;;;;;12.90;9.27;;;;;;;12.80;100.00;99930.47;20810344;28;20049;-78
2022/09/25 04:06:40;;;;;;;16.40;9.02;;;;;;;12.74;100.00;99926.28;20824127;28;20073;-79
2022/09/25 04:16:42;;;;;;;13.38;8.63;;;;;;;12.77;100.00;99925.31;20829929;28;20092;-79
2022/09/25 04:26:45;;;;;;;12.13;8.13;;;;;;;12.84;100.00;99930.31;20842340;28;20065;-78
2022/09/25 04:36:46;;;;;;;14.70;9.43;;;;;;;12.83;100.00;99930.34;20864152;28;20070;-79
2022/09/25 04:46:48;;;;;;;11.18;8.63;;;;;;;12.85;100.00;99941.69;20861897;28;20046;-79
2022/09/25 04:56:49;;;;;;;15.13;9.40;;;;;;;12.72;100.00;99935.09;20846171;28;20092;-79
2022/09/25 05:06:50;;;;;;;14.77;8.88;;;;;;;12.64;100.00;99943.22;20844158;28;20042;-79
2022/09/25 05:16:52;;;;;;;15.40;9.00;;;;;;;12.58;100.00;99944.25;20836560;28;20144;-79
2022/09/25 05:26:53;;;;;;;15.50;9.15;;;;;;;12.64;100.00;99940.59;20854999;28;20053;-78
2022/09/25 05:36:54;;;;;;;13.98;8.95;;;;;;;12.64;100.00;99942.34;20850047;28;20509;-79
2022/09/25 05:46:56;;;;;;;14.82;9.20;;;;;;;12.66;100.00;99943.19;20830113;28;20045;-79
2022/09/25 05:56:57;;;;;;;14.98;9.63;;;;;;;12.68;100.00;99946.59;20846576;28;20053;-79
2022/09/25 06:07:01;;;;;;;15.18;9.43;;;;;;;12.76;100.00;99950.72;20841511;28;20049;-79
2022/09/25 06:17:02;;;;;;;14.07;8.55;;;;;;;12.84;100.00;99947.84;20821622;28;20050;-79
2022/09/25 06:27:04;;;;;;;12.70;7.38;;;;;;;12.89;100.00;99951.19;20821080;28;20095;-79
2022/09/25 06:37:05;;;;;;;11.43;7.10;;;;;;;13.00;100.00;99949.06;20844798;28;20045;-78
2022/09/25 06:47:07;;;;;;;9.88;6.65;;;;;;;13.03;100.00;99959.50;20861833;28;20053;-78
2022/09/25 06:57:09;;;;;;;9.88;6.18;;;;;;;13.25;100.00;99964.06;20836432;28;20062;-79
2022/09/25 07:07:11;;;;;;;12.40;7.80;;;;;;;13.46;100.00;99967.72;20851883;28;20096;-77
2022/09/25 07:17:12;;;;;;;15.02;8.93;;;;;;;13.62;100.00;99970.69;20808142;28;20533;-77
2022/09/25 07:27:14;;;;;;;14.45;9.30;;;;;;;13.65;100.00;99974.03;20827028;28;20069;-77
2022/09/25 07:37:15;;;;;;;12.60;8.38;;;;;;;13.68;100.00;99973.09;20806176;28;20136;-77
2022/09/25 07:47:18;;;;;;;13.23;7.57;;;;;;;13.84;100.00;99975.09;20806221;28;20414;-77
2022/09/25 07:57:19;;;;;;;8.20;5.72;;;;;;;13.63;100.00;99970.63;20826884;28;20056;-78
2022/09/25 08:07:21;;;;;;;7.88;4.95;;;;;;;13.68;100.00;99962.56;20825910;28;20053;-78
2022/09/25 08:17:22;;;;;;;9.93;5.97;;;;;;;14.05;100.00;99962.09;20822504;28;20045;-78
2022/09/25 08:27:23;;;;;;;10.68;6.05;;;;;;;13.98;100.00;99966.72;20805385;28;20088;-78
2022/09/25 08:37:24;;;;;;;10.30;6.95;;;;;;;14.05;100.00;99962.09;20841226;28;20065;-79
2022/09/25 08:57:48;;;;;;;12.48;6.47;;;;;;;14.33;100.00;99970.69;20839137;28;20053;-79
2022/09/25 09:07:49;;;;;;;12.15;7.38;;;;;;;14.43;100.00;99965.06;20860893;28;20042;-79
2022/09/25 09:17:51;;;;;;;12.50;7.50;;;;;;;14.35;100.00;99965.34;20859960;28;20046;-80
2022/09/25 09:27:53;;;;;;;10.30;6.47;;;;;;;14.58;100.00;99972.41;20838969;28;20132;-81
2022/09/25 09:37:55;;;;;;;11.70;6.50;;;;;;;14.71;100.00;99973.66;20826110;28;20050;-77
2022/09/25 09:47:57;;;;;;;10.75;6.90;;;;;;;14.53;100.00;99969.94;20806415;28;20080;-78
2022/09/25 09:57:58;;;;;;;14.32;10.05;;;;;;;14.02;100.00;99963.06;20818810;22;20140;-70
2022/09/25 10:07:59;;;;;;;18.83;9.32;;;;;;;13.76;100.00;99977.19;20805161;28;20152;-71
2022/09/25 10:18:02;;;;;;;11.55;7.75;;;;;;;13.54;100.00;99981.47;20805401;28;20510;-72
2022/09/25 10:28:03;;;;;;;9.70;5.35;;;;;;;13.20;100.00;99976.47;20804940;28;20080;-71
2022/09/25 10:38:05;;;;;;;8.13;5.35;;;;;;;13.55;100.00;99975.28;20816196;28;20482;-71
2022/09/25 10:58:26;;;;;;;7.35;4.95;;;;;;;14.28;100.00;99967.38;20812510;28;20103;-71
2022/09/25 11:08:29;;;;;;;9.25;5.93;;;;;;;14.19;100.00;99975.63;20818033;28;20081;-71
2022/09/25 11:18:30;;;;;;;9.00;4.57;;;;;;;14.37;100.00;99980.19;20817117;28;20057;-70
2022/09/25 11:28:32;;;;;;;6.63;4.60;;;;;;;14.56;100.00;99975.13;20814718;28;20144;-70
2022/09/25 11:48:53;;;;;;;5.63;3.78;;;;;;;14.94;100.00;99966.59;20813128;28;20049;-69
2022/09/25 11:58:56;;;;;;;7.20;3.80;;;;;;;15.43;100.00;99960.16;20812773;28;20049;-70
2022/09/25 12:08:57;;;;;;;5.40;3.22;;;;;;;15.44;100.00;99961.00;20808673;28;20084;-69
2022/09/25 12:18:59;;;;;;;4.93;2.83;;;;;;;15.55;100.00;99956.97;20802339;28;20136;-69
2022/09/25 12:29:02;;;;;;;5.05;3.13;;;;;;;15.61;100.00;99954.03;20812379;28;20155;-69
2022/09/25 12:39:07;;;;;;;6.07;2.83;;;;;;;15.64;100.00;99951.31;20809784;28;20123;-69
2022/09/25 12:49:09;;;;;;;7.05;3.85;;;;;;;15.65;100.00;99950.38;20809985;28;20068;-69
2022/09/25 12:59:12;;;;;;;25.02;15.30;;;;;;;15.69;100.00;99937.91;20805144;28;20140;-69
2022/09/25 13:09:13;;;;;;;5.32;2.92;;;;;;;15.79;100.00;99930.44;20803123;28;20465;-69
2022/09/25 13:19:15;;;;;;;5.30;3.22;;;;;;;15.69;100.00;99923.88;20802363;28;20509;-69
2022/09/25 13:29:16;;;;;;;5.47;3.25;;;;;;;15.75;100.00;99924.44;20801784;28;20052;-69
2022/09/25 13:49:38;;;;;;;7.90;5.15;;;;;;;15.82;100.00;99932.97;20802634;28;20398;-70
2022/09/25 13:59:39;;;;;;;9.35;4.93;;;;;;;15.79;100.00;99935.72;20804923;28;20085;-70
2022/09/25 14:09:41;;;;;;;7.93;5.00;;;;;;;16.04;100.00;99917.84;20799521;28;20084;-70
2022/09/25 14:19:43;;;;;;;7.20;4.90;;;;;;;15.87;100.00;99916.00;20804622;28;20132;-70
2022/09/25 14:29:44;;;;;;;8.35;5.35;;;;;;;16.02;100.00;99925.00;20805398;28;20081;-69
2022/09/25 14:39:47;;;;;;;9.35;6.13;;;;;;;16.00;100.00;99915.41;20802708;28;20149;-70
2022/09/25 14:49:49;;;;;;;7.65;5.40;;;;;;;15.78;100.00;99923.47;20803826;28;20084;-70
2022/09/25 14:59:50;;;;;;;14.05;9.93;;;;;;;14.82;100.00;99936.31;20802636;28;20748;-66
2022/09/25 15:09:54;;;;;;;23.02;15.00;;;;;;;14.42;100.00;99939.63;20801888;28;20073;-66
2022/09/25 15:19:57;;;;;;;20.27;11.10;;;;;;;13.62;100.00;99941.75;20799891;28;20469;-71
2022/09/25 15:29:59;;;;;;;13.57;8.52;;;;;;;12.86;100.00;99948.66;20809794;28;20195;-71
2022/09/25 15:40:01;;;;;;;13.80;7.93;;;;;;;12.76;100.00;99955.13;20808814;28;20060;-70
2022/09/25 15:50:02;;;;;;;14.85;8.10;;;;;;;12.68;100.00;99951.84;20813318;28;20061;-72
2022/09/25 16:10:24;;;;;;;18.65;8.35;;;;;;;12.67;100.00;99952.78;20807837;28;20140;-71
2022/09/25 16:20:26;;;;;;;15.10;8.55;;;;;;;12.82;100.00;99949.66;20805806;28;20144;-70
2022/09/25 16:30:28;;;;;;;16.85;8.70;;;;;;;12.90;100.00;99963.41;20805112;28;20542;-70
2022/09/25 16:40:36;;;;;;;13.27;7.05;;;;;;;12.80;100.00;99967.25;20805341;28;20156;-70
2022/09/25 16:50:38;;;;;;;8.82;5.40;;;;;;;12.79;100.00;99970.75;20803131;28;20053;-73
2022/09/25 17:00:39;;;;;;;9.57;5.40;;;;;;;12.77;100.00;99967.34;20798744;28;20472;-71
2022/09/25 17:10:41;;;;;;;12.93;5.18;;;;;;;12.75;100.00;99963.91;20803282;28;20083;-71
2022/09/25 17:20:42;;;;;;;8.60;4.43;;;;;;;12.55;100.00;99978.53;20803862;28;20564;-74
2022/09/25 17:30:44;;;;;;;9.90;4.60;;;;;;;12.57;100.00;99981.94;20801074;28;20168;-72
2022/09/25 17:40:45;;;;;;;9.68;4.82;;;;;;;12.53;100.00;99988.19;20800087;28;20067;-72
2022/09/25 17:50:46;;;;;;;9.43;5.38;;;;;;;12.50;100.00;99992.66;20800690;28;20045;-72
2022/09/25 18:00:48;;;;;;;9.45;4.88;;;;;;;12.48;100.00;100003.22;20799495;28;20486;-72
2022/09/25 18:10:49;;;;;;;9.93;5.25;;;;;;;12.55;100.00;100002.16;20799953;28;20164;-72
2022/09/25 18:31:11;;;;;;;9.73;6.13;;;;;;;12.69;100.00;100024.50;20802423;28;20069;-72
2022/09/25 18:41:13;;;;;;;8.20;4.82;;;;;;;12.56;100.00;100032.75;20800299;28;20049;-72
2022/09/25 18:51:15;;;;;;;11.00;5.20;;;;;;;12.50;100.00;100032.94;20800081;28;20081;-71
2022/09/25 19:01:16;;;;;;;17.23;9.70;;;;;;;12.52;100.00;100036.38;20815436;28;20091;-70
2022/09/25 19:11:17;;;;;;;12.30;6.20;;;;;;;12.56;100.00;100048.53;20814663;28;20060;-69
2022/09/25 19:21:21;;;;;;;10.10;5.18;;;;;;;12.48;100.00;100040.00;20813065;28;20172;-69
2022/09/25 19:31:22;;;;;;;11.95;5.60;;;;;;;12.44;100.00;100040.97;20814153;28;20620;-70
2022/09/25 19:41:25;;;;;;;11.68;5.65;;;;;;;12.42;100.00;100034.06;20812720;28;20151;-69
2022/09/25 19:51:26;;;;;;;10.57;5.63;;;;;;;12.40;100.00;100039.34;20811499;28;20104;-69
2022/09/25 20:01:29;;;;;;;9.88;5.40;;;;;;;12.31;100.00;100034.34;20811155;28;20049;-70
2022/09/25 20:11:30;;;;;;;8.98;4.90;;;;;;;12.31;100.00;100029.09;20806225;28;20061;-70
2022/09/25 20:21:32;;;;;;;10.38;4.65;;;;;;;12.23;100.00;100042.47;20809681;28;20056;-70
2022/09/25 20:31:33;;;;;;;10.52;4.75;;;;;;;12.20;100.00;100039.06;20810719;28;20087;-70
2022/09/25 20:41:35;;;;;;;9.15;4.97;;;;;;;12.18;100.00;100033.88;20809549;28;20057;-70
2022/09/25 20:51:36;;;;;;;10.32;5.13;;;;;;;12.07;100.00;100034.19;20808938;28;20073;-71
2022/09/25 21:01:39;;;;;;;11.70;5.05;;;;;;;12.00;100.00;100031.75;20807802;28;20112;-70
2022/09/25 21:11:42;;;;;;;17.10;5.35;;;;;;;11.85;100.00;100033.03;20808812;28;20124;-69
2022/09/25 21:21:43;;;;;;;8.93;4.95;;;;;;;11.78;100.00;100031.41;20808302;28;20057;-70
2022/09/25 21:31:45;;;;;;;13.38;6.30;;;;;;;11.73;100.00;100030.69;20806692;28;20092;-69
2022/09/25 21:41:50;;;;;;;10.77;5.22;;;;;;;11.55;100.00;100030.28;20805621;28;20069;-69
2022/09/25 21:51:52;;;;;;;10.88;5.78;;;;;;;11.41;100.00;100013.19;20805400;28;20180;-69
2022/09/25 22:01:54;;;;;;;12.95;5.35;;;;;;;11.25;100.00;100010.06;20806378;28;20528;-69
2022/09/25 22:11:56;;;;;;;14.52;5.95;;;;;;;11.09;100.00;100006.97;20807243;28;20513;-70
2022/09/25 22:21:57;;;;;;;10.82;6.30;;;;;;;10.93;100.00;99998.63;20806362;28;20103;-70
2022/09/25 22:31:59;;;;;;;14.00;6.43;;;;;;;10.77;100.00;99994.63;20819911;28;20473;-69
2022/09/25 22:42:00;;;;;;;9.70;5.65;;;;;;;10.59;100.00;99984.56;20822468;28;20080;-69
2022/09/25 22:52:02;;;;;;;9.63;5.40;;;;;;;10.47;100.00;99993.56;20820152;28;20057;-70
2022/09/25 23:02:03;;;;;;;11.93;5.72;;;;;;;10.37;100.00;99985.03;20817049;28;20176;-69
2022/09/25 23:12:04;;;;;;;13.75;5.35;;;;;;;10.20;100.00;99985.34;20820758;28;20053;-70
2022/09/25 23:22:06;;;;;;;10.82;5.35;;;;;;;10.12;100.00;99981.19;20819082;28;20053;-70
2022/09/25 23:32:09;;;;;;;9.23;5.38;;;;;;;9.97;100.00;99972.75;20819111;28;20256;-71
2022/09/25 23:42:10;;;;;;;11.68;5.93;;;;;;;9.91;100.00;99964.16;20812423;28;20085;-71
2022/09/25 23:52:11;;;;;;;10.45;5.95;;;;;;;9.81;100.00;99957.41;20818209;28;20474;-69
